Time;durP1;ratioP1;P1;durP2;ratioP2;P2;SDS_P1;SDS_P2;PMS_P1;PMS_P2;Temp;Humidity;BMP_temperature;BMP_pressure;BME280_temperature;BME280_humidity;BME280_pressure;Samples;Min_cycle;Max_cycle;Signal;HPM_P1;HPM_P2
2023/07/02 00:00:18;;;;;;;25.13;6.70;;;;;;;19.08;73.07;99337.88;2060948;28;20096;-75
2023/07/02 00:01:22;;;;;;;13.95;6.40;;;;;;;19.04;73.11;99334.31;2071945;28;20122;-75
2023/07/02 00:02:23;;;;;;;13.23;5.80;;;;;;;19.01;73.32;99342.41;2079997;28;20103;-74
2023/07/02 00:03:27;;;;;;;15.50;5.90;;;;;;;19.01;73.11;99335.06;2071355;28;20030;-74
2023/07/02 00:04:34;;;;;;;13.35;5.93;;;;;;;19.02;73.32;99335.84;2056897;28;20046;-74
2023/07/02 00:05:40;;;;;;;16.67;5.93;;;;;;;19.00;73.37;99336.19;2056589;28;20282;-75
2023/07/02 00:06:42;;;;;;;9.90;5.65;;;;;;;18.93;73.48;99331.41;2056685;28;20042;-75
2023/07/02 00:07:43;;;;;;;10.60;5.70;;;;;;;18.94;73.41;99337.63;2071649;28;20136;-76
2023/07/02 00:08:46;;;;;;;17.60;5.70;;;;;;;18.93;73.50;99338.81;2063834;28;20098;-75
2023/07/02 00:09:47;;;;;;;17.38;6.18;;;;;;;18.91;73.67;99330.19;2072443;28;20033;-76
2023/07/02 00:10:52;;;;;;;12.98;5.78;;;;;;;18.90;73.65;99336.81;2071608;28;20045;-77
2023/07/02 00:11:54;;;;;;;13.90;5.82;;;;;;;18.86;73.73;99333.25;2059979;28;20022;-76
2023/07/02 00:12:56;;;;;;;18.67;5.90;;;;;;;18.84;73.79;99332.81;2051340;28;20031;-76
2023/07/02 00:13:57;;;;;;;20.27;5.63;;;;;;;18.82;73.71;99341.34;2063045;28;20133;-74
2023/07/02 00:14:59;;;;;;;16.25;5.72;;;;;;;18.84;73.99;99335.53;2047631;28;20050;-74
2023/07/02 00:16:02;;;;;;;19.92;6.00;;;;;;;18.83;74.00;99332.03;2064492;28;21417;-75
2023/07/02 00:17:03;;;;;;;16.13;6.20;;;;;;;18.84;74.29;99339.03;2087548;28;20959;-74
2023/07/02 00:18:05;;;;;;;13.93;5.65;;;;;;;18.88;74.05;99339.09;2072503;28;20936;-74
2023/07/02 00:19:07;;;;;;;20.83;5.70;;;;;;;18.81;74.23;99333.53;2080066;28;20158;-76
2023/07/02 00:20:16;;;;;;;20.55;6.00;;;;;;;18.78;74.34;99331.53;2079947;28;20152;-77
2023/07/02 00:21:19;;;;;;;14.38;5.85;;;;;;;18.78;74.50;99334.25;2081699;28;20033;-74
2023/07/02 00:22:20;;;;;;;18.27;5.72;;;;;;;18.78;74.58;99324.16;2088312;28;20035;-74
2023/07/02 00:23:23;;;;;;;16.80;6.30;;;;;;;18.76;74.42;99326.47;2076349;28;20182;-76
2023/07/02 00:24:27;;;;;;;11.63;6.20;;;;;;;18.71;74.54;99324.00;2068511;28;20045;-76
2023/07/02 00:25:32;;;;;;;9.95;5.78;;;;;;;18.71;74.72;99319.34;2080512;28;20029;-75
2023/07/02 00:26:41;;;;;;;12.05;5.40;;;;;;;18.71;74.61;99324.00;2079139;28;20180;-74
2023/07/02 00:27:45;;;;;;;11.05;5.70;;;;;;;18.75;74.67;99320.22;2079651;28;21556;-74
2023/07/02 00:28:48;;;;;;;10.35;5.40;;;;;;;18.75;74.60;99319.44;2071704;28;20067;-74
2023/07/02 00:29:52;;;;;;;10.27;6.00;;;;;;;18.78;74.74;99320.66;2071721;28;21763;-75
2023/07/02 00:30:54;;;;;;;7.28;5.30;;;;;;;18.73;74.57;99322.53;2067880;28;20123;-75
2023/07/02 00:31:55;;;;;;;7.18;5.03;;;;;;;18.68;74.68;99322.78;2074671;28;20608;-74
2023/07/02 00:33:01;;;;;;;11.63;5.32;;;;;;;18.67;74.85;99329.41;2055925;28;20034;-74
2023/07/02 00:34:04;;;;;;;7.30;4.70;;;;;;;18.69;74.86;99324.34;2057183;28;20038;-74
2023/07/02 00:35:07;;;;;;;11.48;5.53;;;;;;;18.72;74.87;99326.38;2064544;28;20038;-74
2023/07/02 00:36:15;;;;;;;9.07;5.40;;;;;;;18.77;74.89;99317.16;2056866;28;20924;-74
2023/07/02 00:37:19;;;;;;;9.50;5.70;;;;;;;18.81;75.00;99319.91;2072106;28;20168;-75
2023/07/02 00:38:20;;;;;;;7.30;5.22;;;;;;;18.82;74.82;99322.28;2079556;28;20100;-75
2023/07/02 00:39:22;;;;;;;7.72;5.30;;;;;;;18.82;74.69;99319.56;2072089;28;20045;-75
2023/07/02 00:40:24;;;;;;;10.80;6.00;;;;;;;18.85;74.83;99320.75;2063648;28;20037;-73
2023/07/02 00:41:28;;;;;;;7.65;5.38;;;;;;;18.79;74.79;99319.50;2070843;28;20026;-74
2023/07/02 00:42:35;;;;;;;10.07;5.57;;;;;;;18.80;74.86;99321.09;2071721;28;20211;-74
2023/07/02 00:43:47;;;;;;;7.88;5.60;;;;;;;18.78;74.75;99315.19;2081058;28;20042;-75
2023/07/02 00:44:52;;;;;;;8.95;5.57;;;;;;;18.80;74.76;99321.09;2071892;28;20168;-74
2023/07/02 00:45:54;;;;;;;7.10;5.30;;;;;;;18.81;74.85;99319.91;2063777;28;20963;-74
2023/07/02 00:46:56;;;;;;;10.32;5.20;;;;;;;18.82;74.75;99313.31;2056322;28;21447;-75
2023/07/02 00:47:58;;;;;;;11.82;6.13;;;;;;;18.81;74.88;99314.47;2064198;28;20168;-75
2023/07/02 00:49:02;;;;;;;7.43;5.15;;;;;;;18.79;74.71;99314.03;2072853;28;20473;-74
2023/07/02 00:50:06;;;;;;;9.02;5.28;;;;;;;18.79;74.68;99308.59;2064172;28;20125;-74
2023/07/02 00:51:08;;;;;;;10.93;5.25;;;;;;;18.83;74.77;99314.91;2073679;28;20113;-74
2023/07/02 00:52:11;;;;;;;9.40;5.57;;;;;;;18.87;74.80;99311.09;2072588;28;21557;-75
2023/07/02 00:53:17;;;;;;;9.43;5.38;;;;;;;18.90;74.75;99313.06;2057778;28;20948;-74
2023/07/02 00:54:18;;;;;;;9.38;5.88;;;;;;;18.88;74.71;99304.47;2048298;28;20027;-72
2023/07/02 00:55:20;;;;;;;9.57;6.18;;;;;;;18.90;74.64;99294.00;2056318;28;20181;-72
2023/07/02 00:56:28;;;;;;;7.10;5.28;;;;;;;18.91;74.63;99302.97;2065522;28;21018;-72
2023/07/02 00:57:33;;;;;;;9.07;5.55;;;;;;;18.85;74.53;99307.16;2071486;28;20041;-73
2023/07/02 00:58:40;;;;;;;7.68;5.50;;;;;;;18.84;74.53;99300.91;2065538;28;20959;-73
2023/07/02 00:59:45;;;;;;;10.25;5.82;;;;;;;18.86;74.59;99293.19;2073306;28;20041;-72
2023/07/02 01:00:48;;;;;;;6.97;5.70;;;;;;;18.82;74.58;99294.25;2080906;28;20029;-73
2023/07/02 01:01:52;;;;;;;11.45;6.00;;;;;;;18.85;74.61;99290.81;2065383;28;20039;-72
2023/07/02 01:02:58;;;;;;;9.90;5.40;;;;;;;18.85;74.67;99288.88;2050241;28;20042;-73
2023/07/02 01:04:04;;;;;;;9.20;5.32;;;;;;;18.87;74.74;99288.50;2049458;28;20039;-74
2023/07/02 01:05:09;;;;;;;8.32;5.80;;;;;;;18.90;74.73;99290.50;2065131;28;21660;-74
2023/07/02 01:06:16;;;;;;;7.88;5.55;;;;;;;18.87;74.71;99283.06;2073094;28;20041;-73
2023/07/02 01:07:17;;;;;;;8.05;5.20;;;;;;;18.86;74.67;99276.06;2080593;28;20053;-72
2023/07/02 01:08:22;;;;;;;7.35;5.47;;;;;;;18.87;74.76;99288.50;2089320;28;20171;-71
2023/07/02 01:09:27;;;;;;;8.48;5.40;;;;;;;18.87;74.63;99283.06;2079639;28;20037;-72
2023/07/02 01:10:30;;;;;;;8.48;5.43;;;;;;;18.85;74.63;99280.72;2072533;28;20059;-73
2023/07/02 01:11:44;;;;;;;9.43;6.00;;;;;;;18.83;74.69;99287.69;2063646;28;20879;-74
2023/07/02 01:12:46;;;;;;;7.90;6.15;;;;;;;18.85;74.78;99279.91;2059580;28;20104;-75
2023/07/02 01:13:53;;;;;;;9.65;5.50;;;;;;;18.85;74.63;99269.00;2056795;28;20031;-77
2023/07/02 01:14:59;;;;;;;6.47;5.43;;;;;;;18.87;74.84;99277.63;2057292;28;20177;-74
2023/07/02 01:16:01;;;;;;;6.68;5.40;;;;;;;18.90;74.79;99283.13;2068541;28;20030;-74
2023/07/02 01:17:05;;;;;;;7.85;5.43;;;;;;;18.92;74.69;99272.66;2065343;28;20916;-75
2023/07/02 01:18:08;;;;;;;6.65;5.20;;;;;;;18.91;74.81;99276.50;2072658;28;20108;-76
2023/07/02 01:19:42;;;;;;;7.80;5.63;;;;;;;18.88;74.77;99273.72;2072492;28;20991;-74
2023/07/02 01:20:53;;;;;;;7.45;5.18;;;;;;;18.95;74.82;99265.69;2072043;28;20048;-74
2023/07/02 01:22:00;;;;;;;6.85;5.50;;;;;;;18.94;74.75;99275.00;2058626;28;20034;-74
2023/07/02 01:23:02;;;;;;;6.30;5.03;;;;;;;18.95;74.73;99268.41;2057202;28;20038;-73
2023/07/02 01:24:06;;;;;;;8.48;5.10;;;;;;;18.93;74.77;99266.03;2066193;28;20116;-74
2023/07/02 01:25:09;;;;;;;8.52;5.25;;;;;;;18.87;74.77;99261.28;2064123;28;21015;-73
2023/07/02 01:26:11;;;;;;;5.78;5.07;;;;;;;18.92;74.77;99258.25;2057400;28;20033;-72
2023/07/02 01:27:16;;;;;;;7.38;5.50;;;;;;;18.93;74.82;99265.25;2064871;28;20185;-73
2023/07/02 01:28:20;;;;;;;8.10;5.28;;;;;;;18.94;74.65;99269.56;2065267;28;20141;-73
2023/07/02 01:29:23;;;;;;;7.43;4.88;;;;;;;18.86;74.96;99263.22;2071777;28;22284;-72
2023/07/02 01:30:26;;;;;;;12.07;6.20;;;;;;;18.84;74.76;99257.34;2056146;28;20038;-73
2023/07/02 01:31:28;;;;;;;6.15;4.88;;;;;;;18.84;75.03;99262.78;2063700;28;21544;-73
2023/07/02 01:32:29;;;;;;;6.32;4.75;;;;;;;18.86;74.90;99259.72;2071939;28;20042;-73
2023/07/02 01:33:37;;;;;;;5.80;5.13;;;;;;;18.87;75.16;99266.72;2081536;28;21675;-73
2023/07/02 01:34:39;;;;;;;8.48;5.00;;;;;;;18.88;75.03;99258.19;2087791;28;20028;-73
2023/07/02 01:35:42;;;;;;;6.57;4.90;;;;;;;18.90;75.11;99255.09;2079817;28;20041;-75
2023/07/02 01:36:43;;;;;;;6.88;4.93;;;;;;;18.88;75.12;99251.94;2064023;28;20053;-76
2023/07/02 01:37:48;;;;;;;11.23;5.25;;;;;;;18.85;75.25;99274.47;2055446;28;20189;-76
2023/07/02 01:38:50;;;;;;;7.55;5.10;;;;;;;18.84;75.09;99262.78;2071300;28;20034;-76
2023/07/02 01:39:52;;;;;;;8.43;5.40;;;;;;;18.85;75.25;99258.13;2063435;28;20043;-76
2023/07/02 01:40:54;;;;;;;7.75;4.80;;;;;;;18.86;75.32;99255.06;2059249;28;20132;-75
2023/07/02 01:42:10;;;;;;;7.75;4.63;;;;;;;18.87;75.29;99258.56;2043340;28;21616;-77
2023/07/02 01:43:11;;;;;;;6.70;4.80;;;;;;;18.86;75.15;99260.50;2055042;28;20117;-77
2023/07/02 01:44:13;;;;;;;7.50;4.60;;;;;;;18.88;75.16;99254.66;2048026;28;20035;-77
2023/07/02 01:45:22;;;;;;;6.45;4.72;;;;;;;18.90;75.30;99255.09;2063890;28;20043;-78
2023/07/02 01:46:25;;;;;;;8.68;4.53;;;;;;;18.88;75.35;99265.56;2064477;28;20034;-76
2023/07/02 01:47:27;;;;;;;6.30;4.55;;;;;;;18.88;75.34;99255.44;2063264;28;20172;-77
2023/07/02 01:48:29;;;;;;;6.40;4.50;;;;;;;18.88;75.26;99246.50;2071600;28;20053;-76
2023/07/02 01:49:33;;;;;;;7.72;4.60;;;;;;;18.91;75.39;99251.22;2071125;28;20038;-75
2023/07/02 01:50:34;;;;;;;6.20;4.72;;;;;;;18.93;75.40;99252.44;2062838;28;20193;-75
2023/07/02 01:51:36;;;;;;;6.03;4.20;;;;;;;18.91;75.36;99256.66;2047243;28;20047;-75
2023/07/02 01:52:38;;;;;;;5.13;3.90;;;;;;;18.91;75.36;99246.56;2055887;28;20201;-76
2023/07/02 01:53:39;;;;;;;6.45;4.47;;;;;;;18.88;75.15;99247.28;2063568;28;20179;-77
2023/07/02 01:54:41;;;;;;;7.03;4.20;;;;;;;18.89;75.46;99250.81;2063763;28;21691;-73
2023/07/02 01:55:44;;;;;;;6.70;4.20;;;;;;;18.90;75.50;99244.22;2059514;28;20042;-73
2023/07/02 01:56:45;;;;;;;4.90;4.00;;;;;;;18.91;75.29;99241.09;2067093;28;20030;-73
2023/07/02 01:57:49;;;;;;;7.25;4.22;;;;;;;18.88;75.53;99241.06;2063179;28;20163;-73
2023/07/02 01:58:53;;;;;;;7.63;4.40;;;;;;;18.86;75.78;99240.66;2072057;28;20041;-73
2023/07/02 01:59:58;;;;;;;6.47;4.25;;;;;;;18.87;75.70;99244.94;2079161;28;20041;-76
2023/07/02 02:01:00;;;;;;;7.68;4.38;;;;;;;18.88;75.70;99243.78;2055221;28;20027;-76
2023/07/02 02:02:06;;;;;;;6.57;4.30;;;;;;;18.90;75.71;99238.75;2063354;28;20042;-74
2023/07/02 02:03:11;;;;;;;6.05;3.97;;;;;;;18.93;75.81;99246.19;2070840;28;20091;-73
2023/07/02 02:04:12;;;;;;;7.57;4.13;;;;;;;18.93;75.75;99238.03;2067521;28;21714;-74
2023/07/02 02:05:15;;;;;;;5.72;3.90;;;;;;;18.89;75.78;99239.94;2083779;28;20029;-75
2023/07/02 02:06:17;;;;;;;6.55;3.90;;;;;;;18.87;75.90;99244.94;2080402;28;21558;-74
2023/07/02 02:07:20;;;;;;;6.50;4.10;;;;;;;18.90;75.98;99245.00;2072208;28;20227;-74
2023/07/02 02:08:22;;;;;;;6.05;3.72;;;;;;;18.90;75.94;99239.53;2081224;28;20100;-74
2023/07/02 02:09:24;;;;;;;5.90;4.05;;;;;;;18.87;76.11;99234.03;2080535;28;20034;-74
2023/07/02 02:10:27;;;;;;;12.30;4.20;;;;;;;18.92;76.02;99239.19;2081082;28;20156;-74
2023/07/02 02:11:29;;;;;;;5.55;4.10;;;;;;;18.93;76.04;99243.47;2064513;28;20060;-74
2023/07/02 02:12:31;;;;;;;5.20;3.67;;;;;;;18.94;76.06;99239.59;2064818;28;20053;-74
2023/07/02 02:13:34;;;;;;;9.70;3.67;;;;;;;18.92;76.16;99242.69;2081624;28;20040;-76
2023/07/02 02:14:39;;;;;;;6.82;3.78;;;;;;;18.94;76.32;99245.03;2057007;28;20133;-74
2023/07/02 02:15:43;;;;;;;5.32;4.07;;;;;;;18.93;76.25;99232.59;2042088;28;20194;-74
2023/07/02 02:16:47;;;;;;;4.65;3.95;;;;;;;18.92;76.48;99237.25;2052489;28;20039;-74
2023/07/02 02:17:50;;;;;;;7.57;3.72;;;;;;;18.88;76.76;99241.06;2065299;28;20046;-77
2023/07/02 02:18:53;;;;;;;6.65;4.03;;;;;;;18.88;76.79;99230.16;2072691;28;20048;-74
2023/07/02 02:19:56;;;;;;;5.28;3.90;;;;;;;18.90;76.89;99234.09;2072986;28;20039;-73
2023/07/02 02:20:57;;;;;;;4.90;3.58;;;;;;;18.88;77.29;99225.50;2073184;28;20088;-74
2023/07/02 02:21:59;;;;;;;5.57;3.65;;;;;;;18.88;77.23;99230.16;2064855;28;20142;-75
2023/07/02 02:23:00;;;;;;;4.32;3.53;;;;;;;18.90;77.33;99230.59;2048433;28;20042;-73
2023/07/02 02:24:03;;;;;;;6.88;3.90;;;;;;;18.86;77.53;99229.75;2064417;28;20038;-73
2023/07/02 02:25:06;;;;;;;7.15;4.55;;;;;;;18.80;78.10;99228.50;2065065;28;21515;-74
2023/07/02 02:26:10;;;;;;;5.55;3.90;;;;;;;18.72;78.24;99225.66;2064858;28;20837;-73
2023/07/02 02:27:13;;;;;;;8.45;3.95;;;;;;;18.73;78.36;99229.19;2065427;28;21013;-74
2023/07/02 02:28:14;;;;;;;7.25;4.00;;;;;;;18.74;78.52;99230.75;2068467;28;20038;-73
2023/07/02 02:29:16;;;;;;;5.65;3.78;;;;;;;18.73;78.54;99227.25;2058624;28;20128;-74
2023/07/02 02:30:18;;;;;;;4.85;3.90;;;;;;;18.73;78.73;99229.97;2064276;28;20038;-74
2023/07/02 02:31:19;;;;;;;4.93;3.95;;;;;;;18.74;78.81;99231.53;2048591;28;20047;-74
2023/07/02 02:32:24;;;;;;;6.28;4.07;;;;;;;18.75;78.80;99229.56;2064915;28;20104;-74
2023/07/02 02:33:26;;;;;;;5.40;3.97;;;;;;;18.77;78.80;99229.22;2057185;28;21305;-74
2023/07/02 02:34:29;;;;;;;5.68;4.10;;;;;;;18.78;78.94;99230.78;2056761;28;20033;-74
2023/07/02 02:35:34;;;;;;;5.22;3.90;;;;;;;18.75;78.96;99226.84;2064254;28;20072;-73
2023/07/02 02:36:36;;;;;;;4.90;3.80;;;;;;;18.77;79.13;99229.22;2056865;28;20035;-73
2023/07/02 02:37:39;;;;;;;5.28;3.80;;;;;;;18.77;nan;99221.06;2063928;28;20950;-73
2023/07/02 02:38:42;;;;;;;5.68;3.72;;;;;;;18.74;79.36;99223.34;2055930;28;20901;-74
2023/07/02 02:39:51;;;;;;;8.85;4.05;;;;;;;18.75;79.21;99216.75;2054056;28;20038;-74
2023/07/02 02:40:54;;;;;;;6.70;4.10;;;;;;;18.70;79.14;99214.31;2076449;28;20029;-74
2023/07/02 02:41:58;;;;;;;4.55;3.50;;;;;;;18.75;79.46;99222.19;2061172;28;20061;-73
2023/07/02 02:43:06;;;;;;;5.22;3.88;;;;;;;18.75;79.45;99224.13;2045991;28;20051;-72
2023/07/02 02:44:08;;;;;;;4.70;3.65;;;;;;;18.73;79.64;99219.06;2074206;28;20037;-73
2023/07/02 02:45:15;;;;;;;5.10;3.50;;;;;;;18.75;79.59;99222.19;2080535;28;20052;-74
2023/07/02 02:46:21;;;;;;;5.03;3.92;;;;;;;18.71;79.78;99218.59;2061041;28;20161;-73
2023/07/02 02:47:23;;;;;;;5.78;4.03;;;;;;;18.72;79.86;99227.56;2051022;28;20246;-75
2023/07/02 02:48:24;;;;;;;6.28;3.70;;;;;;;18.72;79.73;99222.91;2048217;28;20043;-73
2023/07/02 02:49:27;;;;;;;5.28;3.75;;;;;;;18.73;79.85;99213.63;2064384;28;21376;-73
2023/07/02 02:50:29;;;;;;;5.75;3.97;;;;;;;18.74;79.80;99217.91;2079703;28;21032;-74
2023/07/02 02:51:30;;;;;;;4.93;3.58;;;;;;;18.75;79.84;99224.13;2072161;28;20156;-75
2023/07/02 02:52:35;;;;;;;5.18;3.50;;;;;;;18.73;79.84;99212.84;2065137;28;20042;-74
2023/07/02 02:53:36;;;;;;;7.65;4.30;;;;;;;18.72;80.06;99217.47;2072942;28;20038;-72
2023/07/02 02:54:38;;;;;;;4.80;3.92;;;;;;;18.72;80.15;99214.75;2067340;28;20197;-73
2023/07/02 02:55:39;;;;;;;6.38;3.70;;;;;;;18.70;80.10;99219.78;2067908;28;20081;-73
2023/07/02 02:56:42;;;;;;;5.05;3.95;;;;;;;18.70;80.15;99213.53;2060147;28;20039;-75
2023/07/02 02:57:45;;;;;;;5.55;3.60;;;;;;;18.71;80.10;99226.78;2059902;28;20161;-75
2023/07/02 02:58:47;;;;;;;4.53;3.45;;;;;;;18.72;80.24;99217.47;2080674;28;20127;-75
2023/07/02 02:59:48;;;;;;;5.07;3.30;;;;;;;18.72;80.16;99211.22;2064435;28;20929;-75
2023/07/02 03:00:51;;;;;;;6.22;3.50;;;;;;;18.73;80.41;99219.06;2056385;28;20893;-75
2023/07/02 03:01:53;;;;;;;5.50;3.40;;;;;;;18.73;80.47;99212.84;2080760;28;21581;-72
2023/07/02 03:02:55;;;;;;;4.20;3.60;;;;;;;18.72;80.48;99212.03;2071703;28;20060;-76
2023/07/02 03:04:01;;;;;;;4.82;3.40;;;;;;;18.72;80.57;99211.22;2064468;28;20038;-76
2023/07/02 03:05:05;;;;;;;6.53;3.45;;;;;;;18.73;80.45;99213.63;2065097;28;20052;-76
2023/07/02 03:06:06;;;;;;;4.00;3.60;;;;;;;18.73;80.56;99205.47;2057164;28;20092;-72
2023/07/02 03:07:08;;;;;;;5.28;3.60;;;;;;;18.70;80.65;99208.88;2052945;28;21075;-75
2023/07/02 03:08:10;;;;;;;5.78;3.55;;;;;;;18.70;80.71;99208.88;2076385;28;20025;-77
2023/07/02 03:09:14;;;;;;;4.90;3.53;;;;;;;18.68;80.89;99208.44;2081885;28;20036;-77
2023/07/02 03:10:16;;;;;;;5.95;3.80;;;;;;;18.66;80.98;99202.59;2073114;28;21381;-75
2023/07/02 03:11:21;;;;;;;5.97;3.58;;;;;;;18.66;80.95;99204.50;2080422;28;20025;-75
2023/07/02 03:12:23;;;;;;;6.93;3.47;;;;;;;18.67;80.94;99204.16;2072381;28;20038;-75
2023/07/02 03:13:26;;;;;;;3.70;3.30;;;;;;;18.67;81.00;99204.16;2080556;28;21007;-77
2023/07/02 03:14:30;;;;;;;4.60;3.50;;;;;;;18.66;81.19;99208.03;2080302;28;20179;-77
2023/07/02 03:15:38;;;;;;;4.38;3.42;;;;;;;18.63;81.19;99208.78;2074371;28;20154;-76
2023/07/02 03:16:40;;;;;;;4.75;3.47;;;;;;;18.61;81.19;99205.63;2080836;28;20029;-76
2023/07/02 03:17:42;;;;;;;6.43;3.33;;;;;;;18.61;81.22;99200.19;2072134;28;20105;-77
2023/07/02 03:18:45;;;;;;;6.45;3.17;;;;;;;18.63;81.23;99197.88;2064433;28;20052;-77
2023/07/02 03:19:46;;;;;;;6.25;3.03;;;;;;;18.66;81.27;99201.78;2079924;28;20042;-76
2023/07/02 03:20:49;;;;;;;3.80;3.33;;;;;;;18.67;81.25;99201.44;2072065;28;20034;-74
2023/07/02 03:21:51;;;;;;;4.43;3.25;;;;;;;18.67;81.46;99193.28;2072130;28;20041;-74
2023/07/02 03:22:52;;;;;;;3.75;3.15;;;;;;;18.63;81.49;99197.88;2072093;28;20037;-76
2023/07/02 03:23:56;;;;;;;3.33;3.03;;;;;;;18.63;81.57;99192.44;2064273;28;20036;-74
2023/07/02 03:24:59;;;;;;;4.05;3.00;;;;;;;18.66;81.51;99196.34;2072037;28;20981;-74
2023/07/02 03:26:06;;;;;;;5.47;3.15;;;;;;;18.63;81.66;99188.91;2071367;28;20189;-76
2023/07/02 03:27:07;;;;;;;4.18;3.00;;;;;;;18.63;81.58;99195.16;2060986;28;20046;-76
2023/07/02 03:28:11;;;;;;;4.13;3.03;;;;;;;18.65;81.72;99194.78;2076450;28;20039;-76
2023/07/02 03:29:16;;;;;;;4.57;3.30;;;;;;;18.64;81.65;99194.00;2071811;28;20033;-76
2023/07/02 03:30:20;;;;;;;4.40;3.38;;;;;;;18.58;82.09;99192.75;2065349;28;20085;-76
2023/07/02 03:31:22;;;;;;;3.90;3.10;;;;;;;18.53;82.07;99185.66;2056907;28;20037;-75
2023/07/02 03:32:27;;;;;;;3.92;3.22;;;;;;;18.56;82.16;99197.75;2065442;28;20030;-74
2023/07/02 03:33:30;;;;;;;3.88;3.25;;;;;;;18.59;82.07;99191.59;2072864;28;20033;-74
2023/07/02 03:34:33;;;;;;;4.35;2.95;;;;;;;18.56;82.34;99195.03;2071989;28;20026;-74
2023/07/02 03:35:41;;;;;;;3.10;2.55;;;;;;;18.54;82.41;99191.91;2080340;28;20025;-74
2023/07/02 03:36:44;;;;;;;3.42;2.88;;;;;;;18.55;82.42;99190.75;2080772;28;21467;-74
2023/07/02 03:37:46;;;;;;;3.63;3.00;;;;;;;18.55;82.35;99188.03;2071139;28;20042;-74
2023/07/02 03:38:52;;;;;;;3.28;2.75;;;;;;;18.57;82.26;99193.09;2071748;28;20045;-74
2023/07/02 03:39:59;;;;;;;3.47;2.88;;;;;;;18.51;82.41;99190.69;2079587;28;20204;-74
2023/07/02 03:41:01;;;;;;;4.60;2.90;;;;;;;18.54;82.54;99183.75;2079839;28;20022;-74
2023/07/02 03:42:06;;;;;;;3.25;2.70;;;;;;;18.54;82.77;99186.47;2063852;28;20038;-74
2023/07/02 03:43:08;;;;;;;4.78;3.13;;;;;;;18.54;82.67;99189.19;2064293;28;20089;-74
2023/07/02 03:44:10;;;;;;;5.32;2.53;;;;;;;18.58;82.76;99189.25;2063847;28;21090;-74
2023/07/02 03:45:12;;;;;;;2.83;2.42;;;;;;;18.58;82.71;99195.47;2063610;28;20097;-74
2023/07/02 03:46:14;;;;;;;5.28;3.00;;;;;;;18.60;82.83;99192.38;2079984;28;20986;-74
2023/07/02 03:47:19;;;;;;;5.47;2.60;;;;;;;18.60;82.65;99190.44;2056020;28;20030;-74
2023/07/02 03:48:23;;;;;;;2.83;2.38;;;;;;;18.63;82.67;99192.44;2060591;28;20036;-73
2023/07/02 03:49:25;;;;;;;2.70;2.50;;;;;;;18.66;82.47;99191.72;2059923;28;20069;-73
2023/07/02 03:50:26;;;;;;;3.65;2.60;;;;;;;18.65;82.63;99189.34;2055910;28;20038;-73
2023/07/02 03:51:32;;;;;;;3.08;2.50;;;;;;;18.64;82.54;99193.22;2063597;28;20038;-74
2023/07/02 03:52:36;;;;;;;2.63;2.22;;;;;;;18.64;82.73;99194.00;2065748;28;20974;-73
2023/07/02 03:53:38;;;;;;;2.72;2.40;;;;;;;18.65;82.59;99201.00;2065407;28;20862;-73
2023/07/02 03:54:46;;;;;;;2.60;2.40;;;;;;;18.68;82.52;99189.41;2073101;28;20029;-73
2023/07/02 03:55:52;;;;;;;3.95;2.70;;;;;;;18.71;82.60;99188.66;2064036;28;20082;-73
2023/07/02 03:56:54;;;;;;;2.35;2.00;;;;;;;18.74;82.48;99193.41;2065595;28;21536;-74
2023/07/02 03:57:56;;;;;;;3.15;2.33;;;;;;;18.75;82.28;99184.06;2072050;28;21316;-74
2023/07/02 03:59:00;;;;;;;2.53;2.10;;;;;;;18.76;82.23;99182.16;2068258;28;21681;-74
2023/07/02 04:00:05;;;;;;;2.50;2.10;;;;;;;18.75;82.16;99188.75;2079491;28;20399;-74
2023/07/02 04:01:16;;;;;;;2.38;2.15;;;;;;;18.77;82.16;99191.88;2072088;28;20041;-73
2023/07/02 04:02:22;;;;;;;3.70;2.10;;;;;;;18.78;82.05;99187.22;2065977;28;20034;-74
2023/07/02 04:03:25;;;;;;;2.40;2.20;;;;;;;18.75;82.23;99184.06;2055620;28;20211;-73
2023/07/02 04:04:26;;;;;;;2.35;2.15;;;;;;;18.74;82.20;99198.06;2055147;28;20925;-73
2023/07/02 04:05:29;;;;;;;3.55;2.20;;;;;;;18.72;82.37;99195.69;2063601;28;20124;-74
2023/07/02 04:06:30;;;;;;;2.75;2.10;;;;;;;18.67;82.38;99187.06;2072329;28;20033;-74
2023/07/02 04:07:32;;;;;;;2.08;1.88;;;;;;;18.67;82.40;99176.94;2080327;28;20036;-74
2023/07/02 04:08:34;;;;;;;2.20;2.00;;;;;;;18.70;82.39;99186.31;2071395;28;20243;-75
2023/07/02 04:09:36;;;;;;;2.83;2.10;;;;;;;18.69;82.52;99185.50;2072271;28;20033;-75
2023/07/02 04:10:40;;;;;;;3.75;1.63;;;;;;;18.67;82.80;99179.66;2064791;28;20192;-74
2023/07/02 04:11:51;;;;;;;2.42;1.80;;;;;;;18.67;82.85;99185.09;2065107;28;20077;-74
2023/07/02 04:12:56;;;;;;;2.28;2.03;;;;;;;18.69;82.83;99187.44;2065787;28;20160;-75
2023/07/02 04:13:58;;;;;;;2.17;1.98;;;;;;;18.68;82.82;99183.94;2071932;28;20064;-75
2023/07/02 04:15:02;;;;;;;2.17;1.90;;;;;;;18.68;82.80;99186.66;2063499;28;20084;-74
2023/07/02 04:16:05;;;;;;;3.08;1.80;;;;;;;18.71;82.85;99194.09;2056557;28;20038;-74
2023/07/02 04:17:07;;;;;;;2.55;1.90;;;;;;;18.74;82.98;99179.78;2072158;28;20029;-74
2023/07/02 04:18:11;;;;;;;2.00;1.60;;;;;;;18.77;83.03;99180.22;2063240;28;20228;-74
2023/07/02 04:19:16;;;;;;;2.92;1.85;;;;;;;18.78;83.13;99182.56;2056537;28;20668;-74
2023/07/02 04:20:18;;;;;;;2.00;1.77;;;;;;;18.78;83.22;99179.06;2059306;28;20640;-74
2023/07/02 04:21:20;;;;;;;3.78;1.90;;;;;;;18.80;83.18;99184.94;2052153;28;20043;-74
2023/07/02 04:22:22;;;;;;;3.53;2.00;;;;;;;18.80;83.09;99184.94;2066876;28;21756;-74
2023/07/02 04:23:23;;;;;;;1.80;1.70;;;;;;;18.82;83.19;99198.94;2071971;28;20045;-73
2023/07/02 04:24:26;;;;;;;3.17;1.77;;;;;;;18.82;83.32;99183.41;2071643;28;21066;-74
2023/07/02 04:25:29;;;;;;;3.65;1.70;;;;;;;18.84;83.30;99183.03;2079200;28;21086;-75
2023/07/02 04:26:31;;;;;;;2.42;1.70;;;;;;;18.85;83.24;99174.50;2063337;28;20454;-74
2023/07/02 04:27:34;;;;;;;1.88;1.77;;;;;;;18.88;83.33;99179.19;2072068;28;20939;-75
2023/07/02 04:28:36;;;;;;;1.70;1.60;;;;;;;18.90;83.35;99182.34;2063347;28;20061;-76
2023/07/02 04:29:38;;;;;;;1.70;1.60;;;;;;;18.94;83.20;99174.22;2071670;28;20048;-77
2023/07/02 04:30:42;;;;;;;4.00;1.85;;;;;;;18.96;82.97;99174.66;2055646;28;20050;-75
2023/07/02 04:31:45;;;;;;;3.60;1.80;;;;;;;18.96;82.98;99177.38;2064387;28;21230;-74
2023/07/02 04:32:47;;;;;;;1.80;1.70;;;;;;;18.99;82.78;99176.63;2071714;28;20030;-75
2023/07/02 04:33:50;;;;;;;3.30;1.70;;;;;;;19.00;82.79;99178.19;2071949;28;20033;-75
2023/07/02 04:34:56;;;;;;;2.58;1.70;;;;;;;19.03;82.80;99172.00;2071665;28;20060;-74
2023/07/02 04:35:58;;;;;;;1.80;1.65;;;;;;;19.07;82.75;99178.28;2071240;28;20038;-74
2023/07/02 04:37:00;;;;;;;1.92;1.67;;;;;;;19.09;82.62;99172.50;2072174;28;21543;-77
2023/07/02 04:38:02;;;;;;;1.65;1.55;;;;;;;19.07;82.81;99167.38;2064109;28;20112;-75
2023/07/02 04:39:04;;;;;;;1.70;1.50;;;;;;;19.14;82.71;99174.91;2080429;28;20037;-76
2023/07/02 04:40:10;;;;;;;3.47;1.60;;;;;;;19.11;82.37;99184.59;2089214;28;20071;-74
2023/07/02 04:41:12;;;;;;;1.80;1.55;;;;;;;19.10;82.16;99176.78;2068191;28;20943;-75
2023/07/02 04:42:14;;;;;;;2.00;1.58;;;;;;;19.02;81.93;99173.19;2059434;28;20130;-75
2023/07/02 04:43:18;;;;;;;2.15;1.50;;;;;;;19.12;82.11;99171.75;2071895;28;20136;-76
2023/07/02 04:44:30;;;;;;;1.98;1.63;;;;;;;19.12;82.07;99167.09;2079531;28;20078;-75
2023/07/02 04:45:35;;;;;;;1.50;1.40;;;;;;;19.13;81.97;99174.09;2068787;28;20040;-75
2023/07/02 04:46:40;;;;;;;1.73;1.50;;;;;;;19.10;81.88;99172.09;2071182;28;20068;-75
2023/07/02 04:47:47;;;;;;;3.47;1.70;;;;;;;19.13;81.80;99167.84;2080397;28;20033;-75
2023/07/02 04:48:49;;;;;;;1.73;1.60;;;;;;;19.13;81.83;99171.38;2063817;28;20099;-75
2023/07/02 04:49:52;;;;;;;1.85;1.60;;;;;;;19.15;81.85;99165.56;2047648;28;20054;-75
2023/07/02 04:50:56;;;;;;;1.95;1.70;;;;;;;19.09;82.28;99170.53;2055899;28;21074;-75
2023/07/02 04:51:57;;;;;;;2.47;1.73;;;;;;;19.12;82.19;99169.81;2072720;28;20026;-75
2023/07/02 04:52:58;;;;;;;1.60;1.45;;;;;;;19.15;82.24;99163.63;2080691;28;20938;-74
2023/07/02 04:54:00;;;;;;;1.85;1.67;;;;;;;19.18;82.40;99167.56;2072564;28;20038;-75
2023/07/02 04:55:02;;;;;;;2.05;1.60;;;;;;;19.20;82.24;99171.47;2064468;28;20057;-75
2023/07/02 04:56:05;;;;;;;2.40;1.40;;;;;;;19.23;82.42;99169.97;2059434;28;20120;-75
2023/07/02 04:57:10;;;;;;;2.10;1.30;;;;;;;19.21;82.37;99173.03;2068246;28;20030;-75
2023/07/02 04:58:12;;;;;;;2.08;1.23;;;;;;;19.24;82.66;99170.75;2056477;28;20122;-75